createdAt,value
2019-02-15T00:00:16.928Z,3.20
2019-02-15T00:02:45.928Z,3.55
2019-02-15T00:05:15.035Z,3.83
2019-02-15T00:07:44.318Z,3.42
2019-02-15T00:10:13.198Z,3.50
2019-02-15T00:12:42.208Z,3.58
2019-02-15T00:15:11.307Z,3.75
2019-02-15T00:17:51.148Z,4.05
2019-02-15T00:20:38.461Z,3.67
2019-02-15T00:23:07.576Z,3.12
2019-02-15T00:25:36.558Z,3.62
2019-02-15T00:28:05.673Z,3.30
2019-02-15T00:30:34.787Z,3.50
2019-02-15T00:33:03.662Z,3.40
2019-02-15T00:35:32.976Z,4.15
2019-02-15T00:38:02.058Z,3.77
2019-02-15T00:40:31.048Z,3.37
2019-02-15T00:43:00.353Z,3.02
2019-02-15T00:45:30.982Z,3.45
2019-02-15T00:48:01.642Z,3.50
2019-02-15T00:50:48.733Z,3.80
2019-02-15T00:53:28.795Z,3.70
2019-02-15T00:55:59.523Z,3.70
2019-02-15T00:58:30.025Z,4.03
2019-02-15T01:01:00.676Z,3.50
2019-02-15T01:03:37.453Z,3.90
2019-02-15T01:06:11.053Z,3.75
2019-02-15T01:08:47.841Z,3.62
2019-02-15T01:11:22.453Z,3.80
2019-02-15T01:13:51.555Z,3.05
2019-02-15T01:16:20.643Z,3.90
2019-02-15T01:18:49.538Z,3.50
2019-02-15T01:21:18.841Z,3.67
2019-02-15T01:23:47.938Z,3.77
2019-02-15T01:26:30.847Z,3.85
2019-02-15T01:29:07.837Z,4.05
2019-02-15T01:31:47.678Z,3.70
2019-02-15T01:34:18.298Z,3.37
2019-02-15T01:36:48.728Z,3.50
2019-02-15T01:39:19.578Z,4.30
2019-02-15T01:41:59.627Z,3.60
2019-02-15T01:44:45.211Z,3.70
2019-02-15T01:47:15.423Z,3.33
2019-02-15T01:49:44.528Z,3.98
2019-02-15T01:52:13.718Z,3.83
2019-02-15T01:54:42.919Z,3.65
2019-02-15T01:57:11.805Z,3.87
2019-02-15T01:59:40.907Z,4.35
2019-02-15T02:02:09.895Z,3.65
2019-02-15T02:04:38.893Z,3.45
2019-02-15T02:07:08.393Z,3.52
2019-02-15T02:09:37.678Z,3.80
2019-02-15T02:12:07.094Z,3.35
2019-02-15T02:14:37.633Z,3.27
2019-02-15T02:17:06.722Z,3.05
2019-02-15T02:19:35.604Z,3.65
2019-02-15T02:22:04.812Z,3.33
2019-02-15T02:24:33.806Z,4.10
2019-02-15T02:27:02.999Z,3.17
2019-02-15T02:29:32.088Z,3.27
2019-02-15T02:32:01.092Z,3.37
2019-02-15T02:34:29.960Z,3.70
2019-02-15T02:36:59.081Z,3.30
2019-02-15T02:39:28.063Z,3.42
2019-02-15T02:41:57.163Z,3.12
2019-02-15T02:44:26.259Z,3.83
2019-02-15T02:46:55.358Z,3.40
2019-02-15T02:49:24.248Z,3.35
2019-02-15T02:51:53.549Z,3.22
2019-02-15T02:54:22.436Z,3.17
2019-02-15T02:56:51.517Z,3.22
2019-02-15T02:59:20.630Z,3.27
2019-02-15T03:01:49.718Z,3.37
2019-02-15T03:04:19.845Z,3.30
2019-02-15T03:06:48.937Z,3.10
2019-02-15T03:09:18.023Z,3.05
2019-02-15T03:11:47.130Z,2.90
2019-02-15T03:14:16.113Z,3.00
2019-02-15T03:16:45.121Z,3.60
2019-02-15T03:19:14.090Z,3.00
2019-02-15T03:21:43.199Z,3.40
2019-02-15T03:24:12.304Z,3.35
2019-02-15T03:26:41.458Z,3.42
2019-02-15T03:29:10.600Z,2.95
2019-02-15T03:31:39.582Z,3.25
2019-02-15T03:34:08.684Z,2.85
2019-02-15T03:36:45.442Z,4.20
2019-02-15T03:39:19.263Z,3.45
2019-02-15T03:41:48.268Z,3.05
2019-02-15T03:44:22.195Z,2.87
2019-02-15T03:46:48.278Z,3.35
2019-02-15T03:49:17.383Z,2.70
2019-02-15T03:51:46.683Z,2.95
2019-02-15T03:54:15.769Z,2.98
2019-02-15T03:56:44.659Z,2.72
2019-02-15T03:59:13.763Z,3.10
2019-02-15T04:01:42.647Z,3.17
2019-02-15T04:04:11.760Z,2.80
2019-02-15T04:06:40.857Z,3.30
2019-02-15T04:09:09.939Z,2.72
2019-02-15T04:11:38.928Z,3.10
2019-02-15T04:14:08.236Z,4.67
2019-02-15T04:16:37.117Z,3.37
2019-02-15T04:19:06.222Z,3.98
2019-02-15T04:21:35.529Z,4.95
2019-02-15T04:24:04.733Z,5.00
2019-02-15T04:26:33.604Z,4.55
2019-02-15T04:29:02.697Z,5.05
2019-02-15T04:31:31.696Z,5.25
2019-02-15T04:34:00.686Z,5.72
2019-02-15T04:36:29.873Z,5.15
2019-02-15T04:38:58.980Z,5.28
2019-02-15T04:41:28.083Z,4.50
2019-02-15T04:43:57.313Z,4.90
2019-02-15T04:46:26.256Z,4.70
2019-02-15T04:48:55.243Z,4.45
2019-02-15T04:51:24.453Z,3.10
2019-02-15T04:53:53.553Z,3.77
2019-02-15T04:56:22.545Z,4.33
2019-02-15T04:58:51.852Z,4.28
2019-02-15T05:01:20.828Z,4.05
2019-02-15T05:03:49.722Z,4.33
2019-02-15T05:06:19.027Z,4.78
2019-02-15T05:08:48.222Z,5.08
2019-02-15T05:11:17.229Z,4.95
2019-02-15T05:13:46.184Z,4.67
2019-02-15T05:16:16.020Z,4.40
2019-02-15T05:18:44.913Z,4.85
2019-02-15T05:21:14.006Z,4.78
2019-02-15T05:23:43.002Z,5.08
2019-02-15T05:26:11.992Z,5.25
2019-02-15T05:28:41.022Z,4.60
2019-02-15T05:31:10.078Z,4.78
2019-02-15T05:33:39.074Z,4.60
2019-02-15T05:36:08.175Z,4.30
2019-02-15T05:38:37.048Z,4.22
2019-02-15T05:41:06.048Z,4.70
2019-02-15T05:43:35.248Z,3.85
2019-02-15T05:46:04.353Z,4.67
2019-02-15T05:48:33.341Z,4.12
2019-02-15T05:51:02.426Z,4.65
2019-02-15T05:53:31.376Z,3.58
2019-02-15T05:56:00.311Z,4.53
2019-02-15T05:58:29.413Z,4.50
2019-02-15T06:00:58.520Z,3.58
2019-02-15T06:03:27.396Z,3.65
2019-02-15T06:05:56.702Z,3.58
2019-02-15T06:08:25.792Z,3.20
2019-02-15T06:10:54.686Z,3.52
2019-02-15T06:13:23.992Z,3.15
2019-02-15T06:15:53.081Z,3.20
2019-02-15T06:18:22.171Z,3.27
2019-02-15T06:20:51.271Z,2.87
2019-02-15T06:23:20.257Z,3.17
2019-02-15T06:25:49.263Z,3.27
2019-02-15T06:28:18.241Z,3.20
2019-02-15T06:30:47.244Z,3.10
2019-02-15T06:33:16.131Z,3.12
2019-02-15T06:35:45.326Z,2.85
2019-02-15T06:38:14.209Z,3.92
2019-02-15T06:40:43.106Z,3.55
2019-02-15T06:43:12.206Z,3.67
2019-02-15T06:45:41.296Z,3.70
2019-02-15T06:48:10.291Z,2.67
2019-02-15T06:50:39.312Z,2.65
2019-02-15T06:53:09.956Z,2.55
2019-02-15T06:55:38.998Z,3.27
2019-02-15T06:58:08.206Z,2.95
2019-02-15T07:00:38.735Z,2.62
2019-02-15T07:03:12.437Z,2.80
2019-02-15T07:05:41.435Z,3.00
2019-02-15T07:08:10.524Z,2.98
2019-02-15T07:10:39.731Z,2.77
2019-02-15T07:13:08.721Z,3.15
2019-02-15T07:15:37.620Z,2.77
2019-02-15T07:18:06.694Z,2.75
2019-02-15T07:20:36.010Z,2.92
2019-02-15T07:23:05.003Z,2.47
2019-02-15T07:25:34.193Z,2.55
2019-02-15T07:28:03.092Z,2.95
2019-02-15T07:30:32.076Z,3.27
2019-02-15T07:33:01.389Z,3.00
2019-02-15T07:35:30.266Z,2.77
2019-02-15T07:37:59.257Z,3.17
2019-02-15T07:40:28.466Z,3.02
2019-02-15T07:42:57.564Z,2.95
2019-02-15T07:45:26.546Z,3.15
2019-02-15T07:47:55.646Z,2.92
2019-02-15T07:50:24.746Z,3.05
2019-02-15T07:52:53.736Z,3.27
2019-02-15T07:55:22.934Z,3.27
2019-02-15T07:57:51.927Z,2.72
2019-02-15T08:00:21.011Z,3.15
2019-02-15T08:02:50.217Z,3.50
2019-02-15T08:05:19.306Z,2.77
2019-02-15T08:07:48.306Z,3.87
2019-02-15T08:10:17.611Z,3.17
2019-02-15T08:12:46.806Z,3.22
2019-02-15T08:15:15.781Z,3.70
2019-02-15T08:17:44.780Z,3.40
2019-02-15T08:20:13.875Z,2.92
2019-02-15T08:22:43.090Z,3.20
2019-02-15T08:25:13.401Z,3.67
2019-02-15T08:27:42.396Z,3.52
2019-02-15T08:30:12.214Z,3.98
2019-02-15T08:32:41.412Z,3.75
2019-02-15T08:35:11.530Z,4.53
2019-02-15T08:37:40.530Z,3.70
2019-02-15T08:40:11.087Z,3.02
2019-02-15T08:42:40.041Z,3.62
2019-02-15T08:45:13.027Z,3.50
2019-02-15T08:47:42.323Z,3.72
2019-02-15T08:50:12.236Z,3.92
2019-02-15T08:52:41.233Z,2.77
2019-02-15T08:55:11.616Z,3.67
2019-02-15T08:57:40.646Z,2.20
2019-02-15T09:00:12.511Z,4.00
2019-02-15T09:02:41.606Z,3.62
2019-02-15T09:05:13.878Z,3.25
2019-02-15T09:07:42.979Z,3.42
2019-02-15T09:10:13.579Z,3.72
2019-02-15T09:12:43.015Z,3.52
2019-02-15T09:15:23.251Z,2.27
2019-02-15T09:17:52.261Z,3.37
2019-02-15T09:20:21.353Z,4.75
2019-02-15T09:22:50.551Z,3.62
2019-02-15T09:25:19.851Z,3.80
2019-02-15T09:27:53.451Z,4.40
2019-02-15T09:30:22.546Z,4.30
2019-02-15T09:32:51.636Z,3.52
2019-02-15T09:35:20.641Z,4.03
2019-02-15T09:37:49.626Z,4.22
2019-02-15T09:40:18.521Z,3.62
2019-02-15T09:42:47.616Z,4.17
2019-02-15T09:45:16.825Z,3.67
2019-02-15T09:47:45.810Z,4.87
2019-02-15T09:50:14.980Z,3.40
2019-02-15T09:52:44.306Z,4.53
2019-02-15T09:55:13.396Z,3.58
2019-02-15T09:57:42.496Z,3.90
2019-02-15T10:00:11.988Z,3.62
2019-02-15T10:02:40.981Z,2.62
2019-02-15T10:05:10.396Z,5.22
2019-02-15T10:07:39.384Z,4.33
2019-02-15T10:10:09.847Z,4.50
2019-02-15T10:12:39.012Z,3.58
2019-02-15T10:15:10.292Z,3.62
2019-02-15T10:17:39.353Z,4.08
2019-02-15T10:20:09.253Z,4.30
2019-02-15T10:22:38.463Z,4.22
2019-02-15T10:25:09.096Z,4.40
2019-02-15T10:27:38.191Z,3.75
2019-02-15T10:30:12.962Z,3.77
2019-02-15T10:32:42.023Z,4.92
2019-02-15T10:35:11.916Z,4.12
2019-02-15T10:37:41.116Z,4.05
2019-02-15T10:40:11.956Z,3.85
2019-02-15T10:42:41.056Z,4.30
2019-02-15T10:45:19.467Z,3.27
2019-02-15T10:47:48.336Z,4.45
2019-02-15T10:50:17.456Z,3.98
2019-02-15T10:52:46.746Z,4.15
2019-02-15T10:55:16.971Z,4.35
2019-02-15T10:57:45.960Z,4.37
2019-02-15T11:00:22.131Z,4.30
2019-02-15T11:02:51.011Z,4.00
2019-02-15T11:05:20.121Z,5.72
2019-02-15T11:07:49.104Z,3.75
2019-02-15T11:10:18.096Z,4.00
2019-02-15T11:12:47.291Z,3.95
2019-02-15T11:15:17.403Z,5.12
2019-02-15T11:17:46.522Z,3.55
2019-02-15T11:20:17.899Z,4.67
2019-02-15T11:22:47.156Z,3.65
2019-02-15T11:25:18.566Z,4.58
2019-02-15T11:27:48.223Z,3.98
2019-02-15T11:30:17.864Z,3.80
2019-02-15T11:32:47.022Z,5.08
2019-02-15T11:35:15.907Z,4.95
2019-02-15T11:37:45.050Z,4.28
2019-02-15T11:40:15.511Z,4.35
2019-02-15T11:42:44.628Z,4.28
2019-02-15T11:45:16.706Z,4.08
2019-02-15T11:47:45.796Z,3.72
2019-02-15T11:50:15.371Z,3.65
2019-02-15T11:52:44.601Z,4.05
2019-02-15T11:55:13.796Z,3.50
2019-02-15T11:57:42.781Z,4.10
2019-02-15T12:00:17.777Z,3.17
2019-02-15T12:02:46.320Z,2.98
2019-02-15T12:05:15.405Z,3.47
2019-02-15T12:07:44.602Z,3.60
2019-02-15T12:10:13.894Z,3.75
2019-02-15T12:12:43.002Z,4.08
2019-02-15T12:15:12.192Z,3.77
2019-02-15T12:17:41.292Z,4.10
2019-02-15T12:20:12.539Z,3.30
2019-02-15T12:22:41.833Z,2.70
2019-02-15T12:25:10.831Z,4.47
2019-02-15T12:27:39.916Z,3.45
2019-02-15T12:30:16.691Z,3.10
2019-02-15T12:32:45.697Z,3.62
2019-02-15T12:35:14.787Z,3.80
2019-02-15T12:37:43.876Z,3.77
2019-02-15T12:40:13.597Z,3.27
2019-02-15T12:42:42.686Z,3.55
2019-02-15T12:45:16.273Z,3.27
2019-02-15T12:47:45.250Z,3.72
2019-02-15T12:50:19.463Z,4.53
2019-02-15T12:52:48.665Z,4.70
2019-02-15T12:55:17.756Z,3.77
2019-02-15T12:57:46.664Z,4.60
2019-02-15T13:00:16.801Z,4.30
2019-02-15T13:02:45.871Z,4.67
2019-02-15T13:05:15.367Z,4.35
2019-02-15T13:07:44.579Z,4.65
2019-02-15T13:10:15.386Z,4.30
2019-02-15T13:12:44.411Z,4.97
2019-02-15T13:15:13.945Z,4.67
2019-02-15T13:17:42.886Z,4.03
2019-02-15T13:20:11.987Z,4.05
2019-02-15T13:22:41.210Z,3.90
2019-02-15T13:25:10.381Z,4.42
2019-02-15T13:27:39.369Z,5.00
2019-02-15T13:30:11.536Z,5.83
2019-02-15T13:32:40.646Z,5.53
2019-02-15T13:35:12.706Z,5.50
2019-02-15T13:37:41.801Z,5.75
2019-02-15T13:40:11.106Z,5.92
2019-02-15T13:42:40.096Z,6.08
2019-02-15T13:45:11.361Z,5.60
2019-02-15T13:47:40.443Z,4.97
2019-02-15T13:50:14.038Z,4.85
2019-02-15T13:52:43.141Z,4.37
2019-02-15T13:55:12.137Z,4.75
2019-02-15T13:57:41.222Z,5.40
2019-02-15T14:00:16.515Z,5.80
2019-02-15T14:02:45.441Z,5.67
2019-02-15T14:05:14.551Z,5.75
2019-02-15T14:07:43.641Z,4.85
2019-02-15T14:10:13.972Z,6.08
2019-02-15T14:12:43.156Z,5.15
2019-02-15T14:15:12.928Z,4.45
2019-02-15T14:17:45.478Z,5.00
2019-02-15T14:20:14.653Z,4.87
2019-02-15T14:22:43.781Z,6.35
2019-02-15T14:25:13.156Z,3.77
2019-02-15T14:27:42.251Z,5.60
2019-02-15T14:30:14.824Z,4.78
2019-02-15T14:32:43.921Z,4.65
2019-02-15T14:35:14.341Z,4.60
2019-02-15T14:37:43.462Z,5.67
2019-02-15T14:40:13.441Z,5.22
2019-02-15T14:42:42.546Z,6.05
2019-02-15T14:45:12.700Z,5.65
2019-02-15T14:47:41.989Z,5.33
2019-02-15T14:50:11.681Z,6.55
2019-02-15T14:52:40.864Z,5.12
2019-02-15T14:55:10.806Z,5.83
2019-02-15T14:57:39.900Z,5.72
2019-02-15T15:00:13.387Z,4.95
2019-02-15T15:02:43.866Z,4.70
2019-02-15T15:05:15.871Z,5.05
2019-02-15T15:07:44.858Z,4.20
2019-02-15T15:10:14.072Z,4.62
2019-02-15T15:12:43.051Z,3.80
2019-02-15T15:15:13.702Z,3.55
2019-02-15T15:17:43.376Z,4.40
2019-02-15T15:20:13.237Z,4.42
2019-02-15T15:22:42.516Z,4.62
2019-02-15T15:25:13.554Z,4.67
2019-02-15T15:27:42.541Z,5.70
2019-02-15T15:30:14.207Z,4.90
2019-02-15T15:32:43.192Z,4.58
2019-02-15T15:35:12.731Z,5.17
2019-02-15T15:37:41.797Z,5.47
2019-02-15T15:40:14.952Z,4.75
2019-02-15T15:42:44.090Z,4.42
2019-02-15T15:45:13.482Z,4.45
2019-02-15T15:47:42.476Z,4.33
2019-02-15T15:50:12.186Z,5.05
2019-02-15T15:52:41.482Z,4.35
2019-02-15T15:55:11.766Z,4.33
2019-02-15T15:57:40.918Z,4.20
2019-02-15T16:00:16.703Z,4.45
2019-02-15T16:02:45.868Z,4.58
2019-02-15T16:05:14.951Z,4.67
2019-02-15T16:07:44.195Z,4.85
2019-02-15T16:10:16.316Z,5.67
2019-02-15T16:12:45.306Z,5.60
2019-02-15T16:15:14.800Z,4.60
2019-02-15T16:17:43.906Z,5.37
2019-02-15T16:20:13.669Z,4.47
2019-02-15T16:22:42.916Z,4.05
2019-02-15T16:25:11.907Z,4.47
2019-02-15T16:27:40.902Z,4.62
2019-02-15T16:30:15.130Z,4.00
2019-02-15T16:32:44.001Z,3.90
2019-02-15T16:35:13.161Z,3.83
2019-02-15T16:37:42.422Z,3.58
2019-02-15T16:40:13.967Z,4.30
2019-02-15T16:42:43.053Z,4.03
2019-02-15T16:45:14.922Z,3.70
2019-02-15T16:47:44.008Z,3.37
2019-02-15T16:50:13.311Z,3.62
2019-02-15T16:52:42.806Z,3.15
2019-02-15T16:55:13.260Z,3.52
2019-02-15T16:57:42.541Z,3.50
2019-02-15T17:00:13.250Z,3.80
2019-02-15T17:02:42.367Z,3.70
2019-02-15T17:05:11.456Z,3.55
2019-02-15T17:07:40.675Z,3.45
2019-02-15T17:10:10.885Z,4.35
2019-02-15T17:12:39.876Z,4.22
2019-02-15T17:15:16.212Z,3.60
2019-02-15T17:17:45.338Z,7.10
2019-02-15T17:20:14.338Z,6.40
2019-02-15T17:22:43.536Z,6.97
2019-02-15T17:25:13.136Z,6.58
2019-02-15T17:27:42.011Z,5.42
2019-02-15T17:30:12.042Z,4.53
2019-02-15T17:32:41.143Z,4.42
2019-02-15T17:35:11.361Z,4.78
2019-02-15T17:37:40.564Z,5.00
2019-02-15T17:40:14.046Z,4.95
2019-02-15T17:42:43.160Z,5.17
2019-02-15T17:45:12.836Z,4.95
2019-02-15T17:47:41.955Z,5.25
2019-02-15T17:50:12.476Z,4.33
2019-02-15T17:52:41.794Z,4.37
2019-02-15T17:55:11.307Z,4.42
2019-02-15T17:57:40.486Z,4.70
2019-02-15T18:00:12.153Z,4.33
2019-02-15T18:02:41.244Z,4.30
2019-02-15T18:05:12.582Z,4.60
2019-02-15T18:07:41.886Z,4.03
2019-02-15T18:10:10.885Z,4.20
2019-02-15T18:12:39.976Z,4.58
2019-02-15T18:15:10.296Z,4.78
2019-02-15T18:17:39.497Z,4.33
2019-02-15T18:20:09.696Z,4.80
2019-02-15T18:22:39.056Z,5.22
2019-02-15T18:25:09.004Z,4.35
2019-02-15T18:27:37.984Z,6.00
2019-02-15T18:30:10.411Z,4.97
2019-02-15T18:32:39.431Z,5.28
2019-02-15T18:35:08.529Z,4.90
2019-02-15T18:37:37.948Z,4.70
2019-02-15T18:40:09.577Z,5.05
2019-02-15T18:42:38.582Z,4.83
2019-02-15T18:45:11.058Z,5.25
2019-02-15T18:47:40.141Z,4.87
2019-02-15T18:50:10.190Z,4.53
2019-02-15T18:52:39.256Z,4.70
2019-02-15T18:55:10.636Z,6.00
2019-02-15T18:57:39.719Z,5.10
2019-02-15T19:00:15.956Z,5.30
2019-02-15T19:02:52.118Z,5.00
2019-02-15T19:05:21.429Z,5.60
2019-02-15T19:07:50.516Z,5.08
2019-02-15T19:10:21.096Z,4.67
2019-02-15T19:12:50.456Z,5.05
2019-02-15T19:15:20.151Z,5.55
2019-02-15T19:17:49.262Z,4.92
2019-02-15T19:20:18.682Z,4.90
2019-02-15T19:22:47.771Z,5.40
2019-02-15T19:25:18.563Z,4.75
2019-02-15T19:27:47.791Z,4.95
2019-02-15T19:30:28.661Z,5.20
2019-02-15T19:32:57.761Z,5.92
2019-02-15T19:35:26.852Z,4.97
2019-02-15T19:37:55.841Z,5.50
2019-02-15T19:40:24.936Z,5.92
2019-02-15T19:42:59.780Z,4.70
2019-02-15T19:45:28.971Z,5.28
2019-02-15T19:47:58.455Z,4.72
2019-02-15T19:50:27.678Z,5.25
2019-02-15T19:52:58.811Z,5.62
2019-02-15T19:55:27.906Z,5.37
2019-02-15T19:57:56.900Z,5.78
2019-02-15T20:00:26.097Z,5.17
2019-02-15T20:02:55.002Z,4.62
2019-02-15T20:05:23.873Z,4.90
2019-02-15T20:07:52.971Z,5.35
2019-02-15T20:10:23.464Z,5.42
2019-02-15T20:12:52.491Z,5.37
2019-02-15T20:15:21.481Z,4.75
2019-02-15T20:17:50.481Z,4.55
2019-02-15T20:20:19.586Z,5.00
2019-02-15T20:22:48.673Z,5.53
2019-02-15T20:25:17.761Z,5.42
2019-02-15T20:27:46.760Z,4.85
2019-02-15T20:30:21.182Z,5.58
2019-02-15T20:32:50.166Z,4.70
2019-02-15T20:35:19.166Z,4.47
2019-02-15T20:37:48.257Z,4.87
2019-02-15T20:40:17.251Z,5.05
2019-02-15T20:42:46.236Z,5.75
2019-02-15T20:45:24.761Z,5.45
2019-02-15T20:47:53.760Z,4.75
2019-02-15T20:50:22.756Z,4.97
2019-02-15T20:52:52.046Z,4.80
2019-02-15T20:55:21.355Z,4.50
2019-02-15T20:57:51.876Z,4.25
2019-02-15T21:00:23.371Z,5.33
2019-02-15T21:02:52.428Z,4.40
2019-02-15T21:05:21.311Z,4.60
2019-02-15T21:07:51.223Z,4.40
2019-02-15T21:10:20.220Z,4.03
2019-02-15T21:12:49.246Z,4.37
2019-02-15T21:15:18.407Z,4.37
2019-02-15T21:17:47.521Z,4.33
2019-02-15T21:20:16.519Z,5.15
2019-02-15T21:22:45.693Z,4.60
2019-02-15T21:25:16.435Z,4.30
2019-02-15T21:27:45.420Z,4.50
2019-02-15T21:30:18.827Z,4.58
2019-02-15T21:32:47.822Z,3.72
2019-02-15T21:35:16.910Z,4.83
2019-02-15T21:37:46.101Z,4.67
2019-02-15T21:40:17.137Z,5.20
2019-02-15T21:42:46.036Z,4.97
2019-02-15T21:45:15.336Z,5.25
2019-02-15T21:47:44.232Z,5.08
2019-02-15T21:50:17.065Z,4.53
2019-02-15T21:52:44.762Z,4.75
2019-02-15T21:55:15.316Z,4.37
2019-02-15T21:57:44.312Z,4.78
2019-02-15T22:00:28.001Z,5.50
2019-02-15T22:02:57.135Z,4.78
2019-02-15T22:05:26.226Z,4.47
2019-02-15T22:07:55.321Z,4.80
2019-02-15T22:10:24.311Z,5.08
2019-02-15T22:12:53.171Z,4.65
2019-02-15T22:15:22.507Z,4.42
2019-02-15T22:17:53.956Z,4.75
2019-02-15T22:20:26.807Z,5.15
2019-02-15T22:22:53.680Z,4.50
2019-02-15T22:25:22.781Z,3.83
2019-02-15T22:27:51.770Z,4.35
2019-02-15T22:30:21.541Z,4.22
2019-02-15T22:32:50.581Z,5.75
2019-02-15T22:35:19.466Z,5.70
2019-02-15T22:37:48.663Z,5.40
2019-02-15T22:40:31.886Z,4.70
2019-02-15T22:43:04.056Z,3.70
2019-02-15T22:45:32.947Z,4.17
2019-02-15T22:48:02.048Z,4.95
2019-02-15T22:50:35.961Z,4.65
2019-02-15T22:53:02.784Z,5.65
2019-02-15T22:55:31.785Z,4.75
2019-02-15T22:58:00.886Z,4.85
2019-02-15T23:00:40.216Z,5.37
2019-02-15T23:03:09.416Z,4.53
2019-02-15T23:05:38.496Z,5.22
2019-02-15T23:08:07.506Z,4.95
2019-02-15T23:10:36.808Z,4.78
2019-02-15T23:13:05.891Z,4.83
2019-02-15T23:15:34.997Z,4.50
2019-02-15T23:18:04.196Z,4.28
2019-02-15T23:20:33.286Z,4.87
2019-02-15T23:23:02.487Z,4.78
2019-02-15T23:25:31.577Z,4.42
2019-02-15T23:28:00.578Z,4.53
2019-02-15T23:30:29.666Z,4.53
2019-02-15T23:32:58.761Z,5.00
2019-02-15T23:35:27.751Z,3.77
2019-02-15T23:37:56.753Z,4.80
2019-02-15T23:40:26.141Z,4.75
2019-02-15T23:42:55.251Z,5.10
2019-02-15T23:45:24.357Z,4.37
2019-02-15T23:47:53.435Z,4.95
2019-02-15T23:50:22.559Z,5.15
2019-02-15T23:52:51.731Z,5.08
2019-02-15T23:55:20.825Z,4.35
2019-02-15T23:57:49.821Z,4.08
